createdAt,value
2022-09-03T00:00:18.224Z,98637.31
2022-09-03T00:02:49.060Z,98635.78
2022-09-03T00:05:21.086Z,98639.25
2022-09-03T00:07:55.652Z,98636.94
2022-09-03T00:10:27.872Z,98640.19
2022-09-03T00:13:00.220Z,98639.00
2022-09-03T00:15:28.204Z,98642.22
2022-09-03T00:18:00.068Z,98642.00
2022-09-03T00:20:31.994Z,98635.31
2022-09-03T00:23:02.315Z,98635.66
2022-09-03T00:25:35.343Z,98638.56
2022-09-03T00:28:07.620Z,98641.50
2022-09-03T00:30:35.887Z,98637.47
2022-09-03T00:33:09.471Z,98629.84
2022-09-03T00:35:42.039Z,98635.28
2022-09-03T00:38:11.067Z,98632.50
2022-09-03T00:40:50.403Z,98639.03
2022-09-03T00:43:24.788Z,98637.78
2022-09-03T00:45:58.470Z,98631.63
2022-09-03T00:48:28.652Z,98624.31
2022-09-03T00:51:07.435Z,98632.09
2022-09-03T00:53:42.191Z,98634.00
2022-09-03T00:56:16.085Z,98637.97
2022-09-03T00:58:57.005Z,98625.50
2022-09-03T01:01:29.643Z,98633.25
2022-09-03T01:04:08.009Z,98631.09
2022-09-03T01:06:42.899Z,98626.88
2022-09-03T01:09:24.138Z,98628.94
2022-09-03T01:11:59.621Z,98624.56
2022-09-03T01:14:36.001Z,98614.66
2022-09-03T01:17:11.760Z,98621.81
2022-09-03T01:20:01.780Z,98623.59
2022-09-03T01:23:03.795Z,98624.94
2022-09-03T01:25:43.099Z,98617.25
2022-09-03T01:28:20.464Z,98622.16
2022-09-03T01:30:52.121Z,98624.50
2022-09-03T01:33:24.620Z,98625.56
2022-09-03T01:35:56.999Z,98623.88
2022-09-03T01:38:31.303Z,98619.22
2022-09-03T01:41:21.535Z,98622.50
2022-09-03T01:44:00.262Z,98620.19
2022-09-03T01:46:31.489Z,98619.16
2022-09-03T01:49:04.932Z,98628.59
2022-09-03T01:51:33.821Z,98623.28
2022-09-03T01:54:21.027Z,98624.75
2022-09-03T01:57:15.114Z,98625.00
2022-09-03T02:00:01.280Z,98625.75
2022-09-03T02:02:30.777Z,98624.41
2022-09-03T02:05:03.731Z,98618.13
2022-09-03T02:07:34.759Z,98629.16
2022-09-03T02:10:04.012Z,98620.91
2022-09-03T02:12:34.432Z,98629.66
2022-09-03T02:15:06.495Z,98634.94
2022-09-03T02:17:34.972Z,98626.22
2022-09-03T02:20:05.864Z,98624.41
2022-09-03T02:22:33.934Z,98630.59
2022-09-03T02:25:01.628Z,98628.50
2022-09-03T02:27:29.572Z,98619.81
2022-09-03T02:29:58.095Z,98629.22
2022-09-03T02:32:27.804Z,98623.72
2022-09-03T02:34:55.373Z,98630.34
2022-09-03T02:37:23.788Z,98625.34
2022-09-03T02:39:51.981Z,98631.63
2022-09-03T02:42:20.533Z,98635.84
2022-09-03T02:44:50.322Z,98623.78
2022-09-03T02:47:20.588Z,98623.69
2022-09-03T02:49:50.078Z,98627.81
2022-09-03T02:52:17.933Z,98623.44
2022-09-03T02:54:45.914Z,98621.38
2022-09-03T02:57:16.933Z,98623.09
2022-09-03T02:59:51.480Z,98622.72
2022-09-03T03:02:19.137Z,98616.22
2022-09-03T03:04:46.858Z,98626.41
2022-09-03T03:07:15.822Z,98630.59
2022-09-03T03:09:44.049Z,98620.28
2022-09-03T03:12:11.677Z,98622.94
2022-09-03T03:14:39.260Z,98624.81
2022-09-03T03:17:06.920Z,98617.97
2022-09-03T03:19:34.662Z,98619.81
2022-09-03T03:22:02.320Z,98619.28
2022-09-03T03:24:31.245Z,98607.41
2022-09-03T03:26:59.271Z,98623.38
2022-09-03T03:29:27.888Z,98619.28
2022-09-03T03:31:55.905Z,98612.38
2022-09-03T03:34:23.515Z,98618.66
2022-09-03T03:36:51.127Z,98621.34
2022-09-03T03:39:18.839Z,98621.63
2022-09-03T03:41:47.787Z,98619.19
2022-09-03T03:44:15.442Z,98618.13
2022-09-03T03:46:43.186Z,98609.25
2022-09-03T03:49:11.075Z,98615.34
2022-09-03T03:51:39.071Z,98611.78
2022-09-03T03:54:07.312Z,98618.28
2022-09-03T03:56:35.606Z,98620.44
2022-09-03T03:59:05.324Z,98625.97
2022-09-03T04:01:33.208Z,98622.34
2022-09-03T04:04:01.155Z,98608.22
2022-09-03T04:06:29.265Z,98615.34
2022-09-03T04:08:56.958Z,98607.47
2022-09-03T04:11:26.016Z,98603.75
2022-09-03T04:13:54.353Z,98610.88
2022-09-03T04:16:25.016Z,98610.88
2022-09-03T04:18:54.111Z,98612.47
2022-09-03T04:21:23.276Z,98602.47
2022-09-03T04:23:51.797Z,98599.81
2022-09-03T04:26:20.790Z,98607.53
2022-09-03T04:28:48.705Z,98601.66
2022-09-03T04:31:19.736Z,98606.13
2022-09-03T04:33:48.713Z,98603.19
2022-09-03T04:36:17.970Z,98615.97
2022-09-03T04:38:46.731Z,98609.56
2022-09-03T04:41:16.182Z,98612.84
2022-09-03T04:43:43.948Z,98613.47
2022-09-03T04:46:17.584Z,98619.47
2022-09-03T04:48:51.020Z,98624.75
2022-09-03T04:51:20.422Z,98628.28
2022-09-03T04:53:49.934Z,98632.00
2022-09-03T04:56:20.271Z,98624.66
2022-09-03T04:58:49.212Z,98629.66
2022-09-03T05:01:20.439Z,98623.38
2022-09-03T05:03:48.165Z,98635.03
2022-09-03T05:06:17.322Z,98633.66
2022-09-03T05:08:46.348Z,98640.34
2022-09-03T05:11:15.882Z,98646.63
2022-09-03T05:13:43.490Z,98644.88
2022-09-03T05:16:13.059Z,98640.00
2022-09-03T05:18:42.381Z,98640.56
2022-09-03T05:21:11.680Z,98649.16
2022-09-03T05:23:42.499Z,98649.72
2022-09-03T05:26:11.862Z,98651.88
2022-09-03T05:28:41.289Z,98653.59
2022-09-03T05:31:10.307Z,98661.47
2022-09-03T05:33:39.355Z,98664.00
2022-09-03T05:36:09.922Z,98667.06
2022-09-03T05:38:37.901Z,98670.94
2022-09-03T05:41:09.059Z,98668.91
2022-09-03T05:43:37.290Z,98677.41
2022-09-03T05:46:06.945Z,98680.31
2022-09-03T05:48:35.283Z,98674.13
2022-09-03T05:51:04.637Z,98677.09
2022-09-03T05:53:34.996Z,98685.06
2022-09-03T05:56:06.001Z,98677.09
2022-09-03T05:58:36.908Z,98674.03
2022-09-03T06:01:11.188Z,98677.94
2022-09-03T06:03:38.924Z,98687.06
2022-09-03T06:06:07.164Z,98692.91
2022-09-03T06:08:35.017Z,98688.22
2022-09-03T06:11:04.094Z,98687.69
2022-09-03T06:13:32.742Z,98685.91
2022-09-03T06:16:03.060Z,98688.03
2022-09-03T06:18:31.202Z,98686.50
2022-09-03T06:21:00.172Z,98683.75
2022-09-03T06:23:29.682Z,98688.94
2022-09-03T06:26:05.665Z,98686.66
2022-09-03T06:28:34.862Z,98680.94
2022-09-03T06:31:05.865Z,98683.22
2022-09-03T06:33:36.639Z,98684.09
2022-09-03T06:36:09.008Z,98678.38
2022-09-03T06:38:39.184Z,98682.75
2022-09-03T06:41:08.216Z,98684.34
2022-09-03T06:43:37.948Z,98681.69
2022-09-03T06:46:09.008Z,98682.66
2022-09-03T06:48:37.609Z,98686.47
2022-09-03T06:51:07.464Z,98683.72
2022-09-03T06:53:36.940Z,98683.94
2022-09-03T06:56:07.608Z,98682.00
2022-09-03T06:58:37.797Z,98687.84
2022-09-03T07:01:08.240Z,98686.25
2022-09-03T07:03:36.254Z,98693.47
2022-09-03T07:06:05.115Z,98698.38
2022-09-03T07:08:33.363Z,98697.50
2022-09-03T07:11:01.614Z,98688.28
2022-09-03T07:13:29.379Z,98690.94
2022-09-03T07:16:01.988Z,98704.16
2022-09-03T07:18:31.553Z,98706.09
2022-09-03T07:21:00.796Z,98705.78
2022-09-03T07:23:29.297Z,98704.19
2022-09-03T07:25:57.838Z,98708.97
2022-09-03T07:28:26.183Z,98716.28
2022-09-03T07:30:54.530Z,98710.78
2022-09-03T07:33:22.278Z,98708.88
2022-09-03T07:35:51.279Z,98710.47
2022-09-03T07:38:20.105Z,98712.09
2022-09-03T07:40:48.155Z,98714.09
2022-09-03T07:43:16.740Z,98711.69
2022-09-03T07:45:45.732Z,98714.75
2022-09-03T07:48:13.459Z,98714.31
2022-09-03T07:50:41.224Z,98716.03
2022-09-03T07:53:10.208Z,98700.38
2022-09-03T07:55:37.875Z,98690.31
2022-09-03T07:58:05.891Z,98685.97
2022-09-03T08:00:35.478Z,98687.06
2022-09-03T08:03:06.734Z,98687.69
2022-09-03T08:05:35.411Z,98697.13
2022-09-03T08:08:03.427Z,98701.81
2022-09-03T08:10:35.799Z,98713.63
2022-09-03T08:13:05.510Z,98714.59
2022-09-03T08:15:34.172Z,98725.75
2022-09-03T08:18:03.535Z,98742.34
2022-09-03T08:20:33.376Z,98736.91
2022-09-03T08:23:04.356Z,98736.16
2022-09-03T08:25:32.012Z,98728.94
2022-09-03T08:28:01.294Z,98725.03
2022-09-03T08:30:29.372Z,98735.75
2022-09-03T08:32:57.152Z,98736.91
2022-09-03T08:35:24.878Z,98741.47
2022-09-03T08:37:56.817Z,98734.16
2022-09-03T08:40:24.979Z,98732.56
2022-09-03T08:43:06.911Z,98741.38
2022-09-03T08:45:36.458Z,98748.47
2022-09-03T08:48:07.266Z,98764.91
2022-09-03T08:50:37.989Z,98759.38
2022-09-03T08:53:12.085Z,98757.13
2022-09-03T08:55:44.900Z,98754.81
2022-09-03T08:58:17.278Z,98766.47
2022-09-03T09:00:50.585Z,98757.66
2022-09-03T09:03:39.004Z,98758.25
2022-09-03T09:06:12.628Z,98763.16
2022-09-03T09:08:48.240Z,98764.41
2022-09-03T09:11:22.611Z,98769.34
2022-09-03T09:13:57.442Z,98777.53
2022-09-03T09:16:32.678Z,98780.25
2022-09-03T09:19:11.453Z,98774.59
2022-09-03T09:21:46.313Z,98770.41
2022-09-03T09:24:23.358Z,98770.84
2022-09-03T09:26:51.673Z,98767.13
2022-09-03T09:29:20.817Z,98768.25
2022-09-03T09:31:49.408Z,98760.88
2022-09-03T09:34:17.105Z,98765.25
2022-09-03T09:36:50.458Z,98771.16
2022-09-03T09:39:19.151Z,98772.28
2022-09-03T09:41:58.707Z,98773.84
2022-09-03T09:44:28.046Z,98769.00
2022-09-03T09:47:06.750Z,98773.69
2022-09-03T09:49:36.207Z,98773.44
2022-09-03T09:52:07.918Z,98770.91
2022-09-03T09:54:36.111Z,98777.16
2022-09-03T09:57:06.256Z,98777.69
2022-09-03T09:59:37.969Z,98779.50
2022-09-03T10:02:11.598Z,98775.91
2022-09-03T10:04:43.975Z,98772.22
2022-09-03T10:07:25.817Z,98767.56
2022-09-03T10:10:01.486Z,98764.00
2022-09-03T10:12:34.920Z,98764.41
2022-09-03T10:15:24.606Z,98763.28
2022-09-03T10:18:03.319Z,98766.69
2022-09-03T10:20:37.317Z,98771.88
2022-09-03T10:23:11.521Z,98771.72
2022-09-03T10:25:45.796Z,98772.44
2022-09-03T10:28:14.693Z,98764.72
2022-09-03T10:30:55.338Z,98771.88
2022-09-03T10:33:27.490Z,98775.13
2022-09-03T10:36:05.149Z,98772.97
2022-09-03T10:38:38.289Z,98769.47
2022-09-03T10:41:20.058Z,98768.13
2022-09-03T10:44:10.268Z,98772.63
2022-09-03T10:46:47.705Z,98766.44
2022-09-03T10:49:27.317Z,98773.09
2022-09-03T10:52:03.400Z,98764.97
2022-09-03T10:54:49.871Z,98764.56
2022-09-03T10:57:26.529Z,98761.63
2022-09-03T11:00:03.847Z,98763.00
2022-09-03T11:02:48.373Z,98763.53
2022-09-03T11:05:19.423Z,98761.63
2022-09-03T11:07:49.404Z,98753.06
2022-09-03T11:10:20.381Z,98750.84
2022-09-03T11:12:53.087Z,98740.78
2022-09-03T11:15:27.787Z,98743.03
2022-09-03T11:18:00.921Z,98740.97
2022-09-03T11:20:28.719Z,98742.47
2022-09-03T11:22:59.108Z,98748.94
2022-09-03T11:25:31.651Z,98747.38
2022-09-03T11:28:08.881Z,98745.22
2022-09-03T11:30:41.192Z,98741.69
2022-09-03T11:33:11.710Z,98737.16
2022-09-03T11:35:42.431Z,98738.78
2022-09-03T11:38:24.589Z,98735.53
2022-09-03T11:41:00.243Z,98735.38
2022-09-03T11:43:29.417Z,98726.19
2022-09-03T11:46:05.893Z,98718.69
2022-09-03T11:48:39.758Z,98723.06
2022-09-03T11:51:20.236Z,98717.81
2022-09-03T11:53:56.623Z,98711.03
2022-09-03T11:56:24.720Z,98719.03
2022-09-03T11:59:09.294Z,98714.31
2022-09-03T12:01:38.710Z,98719.41
2022-09-03T12:04:16.643Z,98719.19
2022-09-03T12:06:57.017Z,98717.84
2022-09-03T12:09:51.432Z,98705.22
2022-09-03T12:12:37.497Z,98711.53
2022-09-03T12:15:09.895Z,98708.13
2022-09-03T12:17:45.554Z,98709.00
2022-09-03T12:20:17.218Z,98709.78
2022-09-03T12:22:45.002Z,98704.91
2022-09-03T12:25:14.984Z,98702.53
2022-09-03T12:27:44.149Z,98702.63
2022-09-03T12:30:16.929Z,98702.22
2022-09-03T12:32:46.429Z,98692.88
2022-09-03T12:38:08.383Z,98700.88
2022-09-03T12:41:24.118Z,98694.94
2022-09-03T12:43:38.942Z,98700.25
2022-09-03T12:46:15.142Z,98704.75
2022-09-03T12:51:51.937Z,98686.44
2022-09-03T12:54:20.789Z,98694.41
2022-09-03T12:56:56.270Z,98688.50
2022-09-03T12:59:25.354Z,98697.34
2022-09-03T13:01:55.871Z,98701.47
2022-09-03T13:04:26.854Z,98694.13
2022-09-03T13:06:58.271Z,98696.25
2022-09-03T13:09:29.930Z,98695.88
2022-09-03T13:11:59.157Z,98702.38
2022-09-03T13:14:27.605Z,98700.09
2022-09-03T13:17:06.647Z,98696.13
2022-09-03T13:19:42.207Z,98696.94
2022-09-03T13:22:16.713Z,98697.88
2022-09-03T13:24:58.334Z,98706.31
2022-09-03T13:27:32.997Z,98706.50
2022-09-03T13:30:06.907Z,98704.41
2022-09-03T13:32:41.014Z,98705.06
2022-09-03T13:35:11.751Z,98710.16
2022-09-03T13:37:44.302Z,98708.25
2022-09-03T13:40:22.428Z,98707.78
2022-09-03T13:42:54.311Z,98705.84
2022-09-03T13:45:31.468Z,98703.03
2022-09-03T13:48:20.308Z,98702.84
2022-09-03T13:50:57.708Z,98691.03
2022-09-03T13:53:37.168Z,98688.44
2022-09-03T13:56:09.945Z,98683.16
2022-09-03T13:58:44.885Z,98688.16
2022-09-03T14:01:20.319Z,98690.97
2022-09-03T14:03:50.834Z,98691.78
2022-09-03T14:06:27.461Z,98698.44
2022-09-03T14:09:05.696Z,98696.94
2022-09-03T14:11:36.560Z,98695.25
2022-09-03T14:14:12.589Z,98698.84
2022-09-03T14:16:43.732Z,98702.50
2022-09-03T14:19:15.982Z,98702.78
2022-09-03T14:21:46.615Z,98693.81
2022-09-03T14:24:22.358Z,98698.44
2022-09-03T14:26:52.737Z,98702.56
2022-09-03T14:29:22.271Z,98713.69
2022-09-03T14:34:37.615Z,98700.22
2022-09-03T14:37:10.271Z,98711.44
2022-09-03T14:39:48.498Z,98706.06
2022-09-03T14:42:37.605Z,98702.53
2022-09-03T14:45:20.043Z,98701.38
2022-09-03T14:47:58.836Z,98689.94
2022-09-03T14:50:39.743Z,98681.19
2022-09-03T14:53:18.168Z,98692.03
2022-09-03T14:56:03.767Z,98696.25
2022-09-03T14:58:44.615Z,98702.16
2022-09-03T15:01:15.106Z,98688.41
2022-09-03T15:04:05.876Z,98699.09
2022-09-03T15:06:41.114Z,98694.63
2022-09-03T15:09:30.070Z,98695.25
2022-09-03T15:12:02.452Z,98697.78
2022-09-03T15:14:37.097Z,98699.94
2022-09-03T15:17:25.418Z,98705.59
2022-09-03T15:20:03.964Z,98701.06
2022-09-03T15:22:44.813Z,98708.59
2022-09-03T15:25:23.027Z,98720.56
2022-09-03T15:28:05.764Z,98711.44
2022-09-03T15:30:40.334Z,98717.22
2022-09-03T15:33:17.224Z,98720.69
2022-09-03T15:35:56.965Z,98716.03
2022-09-03T15:38:35.656Z,98722.69
2022-09-03T15:41:06.778Z,98728.31
2022-09-03T15:43:36.208Z,98728.78
2022-09-03T15:46:12.038Z,98754.38
2022-09-03T15:48:47.596Z,98766.78
2022-09-03T15:51:19.201Z,98771.66
2022-09-03T15:53:52.674Z,98776.72
2022-09-03T15:56:24.067Z,98765.03
2022-09-03T15:58:59.010Z,98767.22
2022-09-03T16:01:38.689Z,98762.44
2022-09-03T16:04:13.512Z,98759.81
2022-09-03T16:06:53.491Z,98760.88
2022-09-03T16:09:31.404Z,98759.09
2022-09-03T16:12:07.738Z,98762.38
2022-09-03T16:14:41.538Z,98757.81
2022-09-03T16:17:17.775Z,98750.19
2022-09-03T16:19:49.060Z,98747.53
2022-09-03T16:22:23.644Z,98750.84
2022-09-03T16:24:55.269Z,98747.13
2022-09-03T16:27:24.927Z,98745.59
2022-09-03T16:30:00.070Z,98743.69
2022-09-03T16:32:49.118Z,98749.75
2022-09-03T16:35:25.804Z,98751.03
2022-09-03T16:38:05.758Z,98751.31
2022-09-03T16:40:38.864Z,98760.16
2022-09-03T16:43:38.933Z,98756.31
2022-09-03T16:46:08.306Z,98759.69
2022-09-03T16:48:46.212Z,98752.03
2022-09-03T16:51:18.850Z,98759.91
2022-09-03T16:54:05.806Z,98758.47
2022-09-03T16:56:43.253Z,98762.75
2022-09-03T16:59:23.118Z,98758.63
2022-09-03T17:02:18.249Z,98757.19
2022-09-03T17:05:09.582Z,98756.81
2022-09-03T17:07:59.805Z,98763.41
2022-09-03T17:10:36.453Z,98754.91
2022-09-03T17:13:27.419Z,98748.00
2022-09-03T17:16:00.453Z,98747.28
2022-09-03T17:18:36.753Z,98746.91
2022-09-03T17:21:15.395Z,98748.59
2022-09-03T17:23:58.945Z,98747.19
2022-09-03T17:26:32.094Z,98744.19
2022-09-03T17:29:09.609Z,98744.56
2022-09-03T17:31:51.327Z,98744.31
2022-09-03T17:34:34.786Z,98750.16
2022-09-03T17:37:11.877Z,98755.13
2022-09-03T17:40:10.324Z,98754.91
2022-09-03T17:42:49.118Z,98752.22
2022-09-03T17:45:21.832Z,98759.38
2022-09-03T17:48:02.517Z,98767.78
2022-09-03T17:50:33.876Z,98770.81
2022-09-03T17:53:04.156Z,98774.19
2022-09-03T17:55:36.509Z,98776.88
2022-09-03T17:58:11.057Z,98773.59
2022-09-03T18:00:45.723Z,98787.28
2022-09-03T18:03:18.391Z,98789.34
2022-09-03T18:06:00.852Z,98790.69
2022-09-03T18:08:44.887Z,98789.09
2022-09-03T18:11:14.924Z,98799.53
2022-09-03T18:13:48.038Z,98798.19
2022-09-03T18:16:20.718Z,98809.19
2022-09-03T18:18:52.010Z,98803.13
2022-09-03T18:21:42.167Z,98813.88
2022-09-03T18:24:40.039Z,98810.03
2022-09-03T18:27:29.390Z,98818.25
2022-09-03T18:30:20.131Z,98811.47
2022-09-03T18:33:05.463Z,98818.97
2022-09-03T18:35:53.171Z,98825.72
2022-09-03T18:38:43.108Z,98826.19
2022-09-03T18:41:39.646Z,98820.34
2022-09-03T18:44:31.617Z,98830.16
2022-09-03T18:50:36.293Z,98828.84
2022-09-03T18:53:29.010Z,98832.09
2022-09-03T18:56:24.777Z,98840.50
2022-09-03T18:59:17.447Z,98827.53
2022-09-03T19:02:02.890Z,98836.94
2022-09-03T19:05:02.200Z,98841.75
2022-09-03T19:08:00.354Z,98839.03
2022-09-03T19:10:48.362Z,98843.50
2022-09-03T19:13:43.299Z,98851.31
2022-09-03T19:16:35.149Z,98847.13
2022-09-03T19:19:34.156Z,98849.28
2022-09-03T19:22:26.208Z,98855.69
2022-09-03T19:25:13.944Z,98856.09
2022-09-03T19:28:05.016Z,98859.25
2022-09-03T19:31:01.651Z,98859.88
2022-09-03T19:33:54.265Z,98877.00
2022-09-03T19:36:44.988Z,98878.50
2022-09-03T19:39:38.542Z,98879.44
2022-09-03T19:42:27.801Z,98879.16
2022-09-03T19:45:19.194Z,98887.56
2022-09-03T19:48:23.372Z,98889.91
2022-09-03T19:51:18.028Z,98893.53
2022-09-03T19:54:04.425Z,98892.91
2022-09-03T19:56:49.728Z,98887.56
2022-09-03T19:59:37.995Z,98898.72
2022-09-03T20:02:23.904Z,98893.34
2022-09-03T20:05:16.901Z,98900.03
2022-09-03T20:08:03.261Z,98897.81
2022-09-03T20:10:29.888Z,98904.19
2022-09-03T20:13:04.704Z,98907.25
2022-09-03T20:15:43.871Z,98906.63
2022-09-03T20:18:17.682Z,98901.84
2022-09-03T20:20:50.147Z,98899.19
2022-09-03T20:23:22.150Z,98904.41
2022-09-03T20:26:09.785Z,98897.50
2022-09-03T20:28:51.422Z,98901.53
2022-09-03T20:31:24.523Z,98906.09
2022-09-03T20:33:59.597Z,98907.38
2022-09-03T20:36:35.807Z,98901.00
2022-09-03T20:39:20.329Z,98908.66
2022-09-03T20:41:58.545Z,98906.53
2022-09-03T20:44:39.752Z,98911.75
2022-09-03T20:47:21.192Z,98918.25
2022-09-03T20:49:54.806Z,98907.19
2022-09-03T20:52:30.688Z,98915.25
2022-09-03T20:55:05.822Z,98919.09
2022-09-03T20:57:41.742Z,98913.25
2022-09-03T21:00:12.642Z,98913.34
2022-09-03T21:02:58.704Z,98926.34
2022-09-03T21:05:28.956Z,98932.41
2022-09-03T21:08:06.358Z,98932.06
2022-09-03T21:10:37.620Z,98929.00
2022-09-03T21:13:11.171Z,98931.31
2022-09-03T21:15:44.931Z,98940.16
2022-09-03T21:18:19.326Z,98936.50
2022-09-03T21:20:49.068Z,98938.09
2022-09-03T21:23:23.124Z,98933.50
2022-09-03T21:25:55.155Z,98952.97
2022-09-03T21:28:25.678Z,98942.22
2022-09-03T21:30:59.357Z,98943.28
2022-09-03T21:33:29.680Z,98937.44
2022-09-03T21:36:03.665Z,98941.06
2022-09-03T21:38:36.999Z,98946.78
2022-09-03T21:41:12.651Z,98942.75
2022-09-03T21:43:46.600Z,98943.81
2022-09-03T21:46:16.993Z,98948.50
2022-09-03T21:48:49.387Z,98952.53
2022-09-03T21:51:21.830Z,98952.41
2022-09-03T21:53:54.735Z,98956.66
2022-09-03T21:56:33.817Z,98953.50
2022-09-03T21:59:08.894Z,98962.88
2022-09-03T22:01:45.282Z,98962.59
2022-09-03T22:04:12.991Z,98964.47
2022-09-03T22:06:48.054Z,98962.44
2022-09-03T22:09:19.730Z,98967.34
2022-09-03T22:11:53.787Z,98963.53
2022-09-03T22:14:24.621Z,98966.97
2022-09-03T22:16:58.620Z,98958.66
2022-09-03T22:19:27.956Z,98956.75
2022-09-03T22:21:59.586Z,98954.09
2022-09-03T22:24:36.162Z,98959.00
2022-09-03T22:27:09.596Z,98961.22
2022-09-03T22:29:42.949Z,98956.84
2022-09-03T22:32:24.952Z,98956.84
2022-09-03T22:35:02.752Z,98957.28
2022-09-03T22:37:41.434Z,98955.91
2022-09-03T22:40:19.091Z,98961.97
2022-09-03T22:43:06.979Z,98959.94
2022-09-03T22:45:44.097Z,98955.97
2022-09-03T22:48:20.983Z,98963.34
2022-09-03T22:50:52.948Z,98966.19
2022-09-03T22:53:32.287Z,98963.63
2022-09-03T22:56:06.590Z,98972.44
2022-09-03T22:58:36.625Z,98966.97
2022-09-03T23:01:09.293Z,98975.84
2022-09-03T23:03:42.093Z,98980.63
2022-09-03T23:06:15.349Z,98973.16
2022-09-03T23:08:49.656Z,98972.31
2022-09-03T23:11:25.698Z,98965.50
2022-09-03T23:13:57.982Z,98968.91
2022-09-03T23:16:30.855Z,98972.63
2022-09-03T23:19:01.361Z,98972.19
2022-09-03T23:21:35.123Z,98970.03
2022-09-03T23:24:08.221Z,98972.78
2022-09-03T23:26:41.637Z,98976.28
2022-09-03T23:29:13.169Z,98972.03
2022-09-03T23:31:40.881Z,98982.25
2022-09-03T23:34:10.245Z,98987.47
2022-09-03T23:37:31.716Z,98994.13
2022-09-03T23:39:49.137Z,98992.84
2022-09-03T23:42:24.518Z,98991.47
2022-09-03T23:45:01.913Z,98995.94
2022-09-03T23:47:39.698Z,98992.94
2022-09-03T23:50:14.268Z,98989.63
2022-09-03T23:53:03.139Z,98995.25
2022-09-03T23:55:41.948Z,98992.59
2022-09-03T23:58:19.049Z,98996.00
